createdAt,value
2023-04-01T00:00:08.173Z,86191.06
2023-04-01T00:02:35.396Z,86193.28
2023-04-01T00:05:02.739Z,86192.53
2023-04-01T00:07:30.648Z,86192.16
2023-04-01T00:09:58.389Z,86190.66
2023-04-01T00:12:25.775Z,86194.41
2023-04-01T00:14:53.357Z,86186.56
2023-04-01T00:17:20.658Z,86188.81
2023-04-01T00:19:48.073Z,86186.56
2023-04-01T00:22:15.253Z,86180.22
2023-04-01T00:24:42.488Z,86185.06
2023-04-01T00:27:10.040Z,86186.56
2023-04-01T00:29:37.313Z,86188.41
2023-04-01T00:32:04.631Z,86190.66
2023-04-01T00:34:31.927Z,86186.19
2023-04-01T00:36:59.143Z,86189.53
2023-04-01T00:39:26.414Z,86197.00
2023-04-01T00:41:53.612Z,86189.16
2023-04-01T00:44:26.041Z,86196.63
2023-04-01T00:46:53.527Z,86186.91
2023-04-01T00:49:29.827Z,86197.38
2023-04-01T00:52:01.885Z,86197.38
2023-04-01T00:54:31.905Z,86193.63
2023-04-01T00:57:13.152Z,86194.00
2023-04-01T00:59:52.115Z,86191.75
2023-04-01T01:02:20.240Z,86194.00
2023-04-01T01:04:47.776Z,86184.28
2023-04-01T01:07:40.877Z,86182.78
2023-04-01T01:10:16.294Z,86180.19
2023-04-01T01:12:56.241Z,86186.13
2023-04-01T01:15:47.218Z,86182.38
2023-04-01T01:18:29.227Z,86184.97
2023-04-01T01:21:05.491Z,86183.47
2023-04-01T01:23:51.217Z,86178.59
2023-04-01T01:26:32.978Z,86178.97
2023-04-01T01:29:41.117Z,86185.69
2023-04-01T01:32:52.050Z,86182.31
2023-04-01T01:35:51.233Z,86181.56
2023-04-01T01:38:25.659Z,86175.59
2023-04-01T01:40:57.123Z,86177.09
2023-04-01T01:43:32.855Z,86173.00
2023-04-01T01:46:06.564Z,86169.25
2023-04-01T01:48:37.297Z,86175.22
2023-04-01T01:51:07.809Z,86158.06
2023-04-01T01:53:35.907Z,86161.44
2023-04-01T01:56:04.281Z,86157.31
2023-04-01T01:58:43.670Z,86157.69
2023-04-01T02:01:20.170Z,86155.84
2023-04-01T02:03:49.812Z,86153.22
2023-04-01T02:06:24.742Z,86144.63
2023-04-01T02:09:02.568Z,86147.25
2023-04-01T02:11:42.762Z,86140.50
2023-04-01T02:14:19.230Z,86145.38
2023-04-01T02:17:06.356Z,86141.25
2023-04-01T02:19:44.614Z,86141.59
2023-04-01T02:22:21.215Z,86152.81
2023-04-01T02:24:51.242Z,86156.16
2023-04-01T02:27:18.907Z,86155.78
2023-04-01T02:29:46.268Z,86153.53
2023-04-01T02:32:15.867Z,86160.63
2023-04-01T02:34:44.430Z,86165.84
2023-04-01T02:37:14.233Z,86159.50
2023-04-01T02:39:41.968Z,86168.09
2023-04-01T02:42:09.599Z,86168.06
2023-04-01T02:44:37.231Z,86163.22
2023-04-01T02:47:04.844Z,86157.25
2023-04-01T02:49:32.192Z,86161.38
2023-04-01T02:51:59.461Z,86161.38
2023-04-01T02:54:27.085Z,86160.63
2023-04-01T02:56:54.286Z,86157.63
2023-04-01T02:59:21.551Z,86157.25
2023-04-01T03:01:48.698Z,86170.69
2023-04-01T03:04:15.909Z,86171.81
2023-04-01T03:06:43.048Z,86167.69
2023-04-01T03:09:10.215Z,86180.03
2023-04-01T03:11:37.366Z,86177.44
2023-04-01T03:14:04.529Z,86175.94
2023-04-01T03:16:31.786Z,86178.56
2023-04-01T03:18:59.184Z,86167.72
2023-04-01T03:21:27.290Z,86161.75
2023-04-01T03:23:54.650Z,86164.75
2023-04-01T03:26:21.884Z,86159.53
2023-04-01T03:28:49.242Z,86168.47
2023-04-01T03:31:16.574Z,86161.41
2023-04-01T03:33:43.999Z,86161.03
2023-04-01T03:36:11.962Z,86164.06
2023-04-01T03:38:40.701Z,86164.78
2023-04-01T03:41:08.248Z,86172.63
2023-04-01T03:43:35.473Z,86168.53
2023-04-01T03:46:02.656Z,86177.84
2023-04-01T03:48:29.787Z,86186.78
2023-04-01T03:50:57.313Z,86183.44
2023-04-01T03:53:24.724Z,86177.06
2023-04-01T03:55:51.908Z,86174.47
2023-04-01T03:58:19.262Z,86175.59
2023-04-01T04:00:47.316Z,86169.59
2023-04-01T04:03:14.888Z,86164.75
2023-04-01T04:05:51.292Z,86169.22
2023-04-01T04:08:19.135Z,86172.59
2023-04-01T04:10:46.357Z,86169.97
2023-04-01T04:13:13.579Z,86170.75
2023-04-01T04:15:40.922Z,86180.44
2023-04-01T04:18:08.190Z,86171.84
2023-04-01T04:20:35.464Z,86185.63
2023-04-01T04:23:02.643Z,86168.47
2023-04-01T04:25:29.836Z,86172.94
2023-04-01T04:27:56.982Z,86176.28
2023-04-01T04:30:24.196Z,86175.91
2023-04-01T04:32:51.422Z,86176.28
2023-04-01T04:35:18.798Z,86187.88
2023-04-01T04:37:45.987Z,86181.13
2023-04-01T04:40:13.327Z,86178.94
2023-04-01T04:42:40.479Z,86177.81
2023-04-01T04:45:07.982Z,86175.19
2023-04-01T04:47:35.128Z,86175.19
2023-04-01T04:50:02.333Z,86187.53
2023-04-01T04:52:29.542Z,86187.16
2023-04-01T04:54:56.871Z,86177.41
2023-04-01T04:57:24.442Z,86178.94
2023-04-01T04:59:51.720Z,86180.03
2023-04-01T05:02:18.994Z,86171.47
2023-04-01T05:04:46.440Z,86185.25
2023-04-01T05:07:13.710Z,86178.94
2023-04-01T05:09:41.109Z,86181.91
2023-04-01T05:12:08.341Z,86172.97
2023-04-01T05:14:35.662Z,86174.84
2023-04-01T05:17:02.901Z,86181.56
2023-04-01T05:19:30.309Z,86178.97
2023-04-01T05:21:57.525Z,86185.31
2023-04-01T05:24:27.230Z,86195.03
2023-04-01T05:26:55.833Z,86189.81
2023-04-01T05:29:25.725Z,86195.41
2023-04-01T05:31:53.287Z,86191.63
2023-04-01T05:34:20.429Z,86199.84
2023-04-01T05:36:47.558Z,86200.59
2023-04-01T05:39:14.801Z,86197.63
2023-04-01T05:41:41.913Z,86202.84
2023-04-01T05:44:13.240Z,86212.91
2023-04-01T05:46:41.566Z,86209.19
2023-04-01T05:49:08.845Z,86204.72
2023-04-01T05:51:35.993Z,86209.16
2023-04-01T05:54:05.693Z,86215.91
2023-04-01T05:56:33.012Z,86215.19
2023-04-01T05:59:00.497Z,86214.06
2023-04-01T06:01:27.820Z,86211.47
2023-04-01T06:03:55.132Z,86210.69
2023-04-01T06:06:29.367Z,86211.47
2023-04-01T06:09:02.881Z,86214.81
2023-04-01T06:11:45.077Z,86208.88
2023-04-01T06:14:36.990Z,86216.31
2023-04-01T06:17:46.704Z,86218.59
2023-04-01T06:20:41.177Z,86220.09
2023-04-01T06:23:27.146Z,86229.47
2023-04-01T06:26:13.826Z,86223.88
2023-04-01T06:29:40.796Z,86231.34
2023-04-01T06:32:56.355Z,86240.34
2023-04-01T06:35:48.802Z,86242.94
2023-04-01T06:38:43.791Z,86244.09
2023-04-01T06:41:43.980Z,86245.97
2023-04-01T06:44:33.298Z,86245.22
2023-04-01T06:47:22.461Z,86242.25
2023-04-01T06:50:36.645Z,86244.84
2023-04-01T06:53:25.095Z,86247.09
2023-04-01T06:56:05.470Z,86256.03
2023-04-01T06:58:50.313Z,86252.31
2023-04-01T07:01:30.774Z,86247.06
2023-04-01T07:04:11.269Z,86256.06
2023-04-01T07:07:10.173Z,86256.81
2023-04-01T07:09:44.183Z,86257.59
2023-04-01T07:12:32.650Z,86251.97
2023-04-01T07:15:16.292Z,86246.75
2023-04-01T07:17:48.457Z,86247.88
2023-04-01T07:20:26.067Z,86255.72
2023-04-01T07:23:07.282Z,86253.09
2023-04-01T07:25:44.614Z,86247.50
2023-04-01T07:28:17.753Z,86254.59
2023-04-01T07:30:45.379Z,86254.59
2023-04-01T07:33:44.418Z,86250.47
2023-04-01T07:36:46.155Z,86254.56
2023-04-01T07:39:46.449Z,86253.41
2023-04-01T07:42:40.298Z,86263.13
2023-04-01T07:45:41.452Z,86265.72
2023-04-01T07:48:29.382Z,86273.19
2023-04-01T07:51:10.365Z,86272.06
2023-04-01T07:53:44.527Z,86270.19
2023-04-01T07:56:42.212Z,86275.72
2023-04-01T07:59:47.748Z,86277.19
2023-04-01T08:02:42.671Z,86272.72
2023-04-01T08:05:31.204Z,86277.19
2023-04-01T08:08:20.994Z,86271.19
2023-04-01T08:11:08.696Z,86277.19
2023-04-01T08:14:07.270Z,86275.31
2023-04-01T08:17:03.421Z,86276.38
2023-04-01T08:19:57.441Z,86275.59
2023-04-01T08:22:41.404Z,86270.69
2023-04-01T08:25:33.630Z,86273.28
2023-04-01T08:28:36.207Z,86271.00
2023-04-01T08:32:04.336Z,86269.84
2023-04-01T08:34:47.141Z,86271.31
2023-04-01T08:37:31.185Z,86262.28
2023-04-01T08:40:30.845Z,86273.22
2023-04-01T08:43:18.887Z,86275.88
2023-04-01T08:46:25.121Z,86279.22
2023-04-01T08:49:17.003Z,86281.09
2023-04-01T08:52:02.970Z,86276.53
2023-04-01T08:54:39.078Z,86286.66
2023-04-01T08:57:37.280Z,86275.69
2023-04-01T09:00:30.182Z,86283.88
2023-04-01T09:03:36.547Z,86278.22
2023-04-01T09:06:34.771Z,86279.66
2023-04-01T09:09:55.778Z,86275.44
2023-04-01T09:12:49.948Z,86282.19
2023-04-01T09:15:29.375Z,86276.94
2023-04-01T09:18:41.040Z,86282.66
2023-04-01T09:21:20.876Z,86276.94
2023-04-01T09:24:25.441Z,86284.00
2023-04-01T09:27:14.009Z,86276.88
2023-04-01T09:29:47.453Z,86279.81
2023-04-01T09:32:44.732Z,86279.38
2023-04-01T09:35:54.502Z,86279.75
2023-04-01T09:38:29.577Z,86278.56
2023-04-01T09:41:08.866Z,86286.41
2023-04-01T09:44:14.306Z,86281.84
2023-04-01T09:47:01.634Z,86282.56
2023-04-01T09:50:13.794Z,86277.94
2023-04-01T09:53:16.706Z,86279.53
2023-04-01T09:56:42.344Z,86273.44
2023-04-01T09:59:43.535Z,86271.91
2023-04-01T10:03:12.945Z,86269.56
2023-04-01T10:06:06.021Z,86269.50
2023-04-01T10:09:07.779Z,86270.88
2023-04-01T10:11:43.889Z,86265.53
2023-04-01T10:14:38.942Z,86254.53
2023-04-01T10:17:36.908Z,86257.59
2023-04-01T10:20:39.030Z,86261.59
2023-04-01T10:23:41.060Z,86257.44
2023-04-01T10:26:35.324Z,86246.28
2023-04-01T10:29:38.121Z,86252.03
2023-04-01T10:32:22.876Z,86245.66
2023-04-01T10:35:23.789Z,86243.06
2023-04-01T10:39:01.464Z,86231.31
2023-04-01T10:41:57.324Z,86229.03
2023-04-01T10:44:59.423Z,86227.53
2023-04-01T10:47:41.006Z,86226.47
2023-04-01T10:50:25.180Z,86227.34
2023-04-01T10:53:02.001Z,86220.91
2023-04-01T10:55:55.206Z,86222.16
2023-04-01T10:58:50.385Z,86219.09
2023-04-01T11:02:04.011Z,86218.19
2023-04-01T11:04:58.997Z,86220.88
2023-04-01T11:08:02.790Z,86213.78
2023-04-01T11:11:19.226Z,86214.16
2023-04-01T11:14:30.327Z,86207.94
2023-04-01T11:17:24.987Z,86213.94
2023-04-01T11:20:32.002Z,86216.09
2023-04-01T11:23:32.762Z,86217.22
2023-04-01T11:26:23.946Z,86219.09
2023-04-01T11:29:25.818Z,86210.53
2023-04-01T11:32:34.245Z,86213.25
2023-04-01T11:35:13.779Z,86232.31
2023-04-01T11:38:21.316Z,86230.31
2023-04-01T11:41:14.619Z,86218.66
2023-04-01T11:44:01.103Z,86217.91
2023-04-01T11:47:26.970Z,86206.81
2023-04-01T11:50:25.791Z,86198.91
2023-04-01T11:53:30.126Z,86207.31
2023-04-01T11:56:40.797Z,86207.94
2023-04-01T11:59:29.390Z,86205.91
2023-04-01T12:02:22.279Z,86203.25
2023-04-01T12:05:20.120Z,86199.34
2023-04-01T12:08:11.407Z,86195.97
2023-04-01T12:11:18.420Z,86201.91
2023-04-01T12:14:05.930Z,86206.22
2023-04-01T12:17:15.672Z,86203.00
2023-04-01T12:20:23.120Z,86200.28
2023-04-01T12:23:06.865Z,86201.13
2023-04-01T12:25:55.570Z,86198.66
2023-04-01T12:28:50.098Z,86204.94
2023-04-01T12:31:32.979Z,86204.88
2023-04-01T12:34:24.292Z,86204.91
2023-04-01T12:37:14.768Z,86214.38
2023-04-01T12:40:02.838Z,86214.59
2023-04-01T12:42:51.569Z,86215.25
2023-04-01T12:45:35.553Z,86221.63
2023-04-01T12:48:16.345Z,86230.09
2023-04-01T12:51:05.043Z,86227.81
2023-04-01T12:54:12.082Z,86221.03
2023-04-01T12:56:59.869Z,86224.81
2023-04-01T12:59:59.849Z,86225.72
2023-04-01T13:03:44.170Z,86224.34
2023-04-01T13:06:39.571Z,86220.91
2023-04-01T13:09:40.471Z,86201.63
2023-04-01T13:12:56.400Z,86200.41
2023-04-01T13:15:53.590Z,86210.41
2023-04-01T13:18:33.533Z,86207.59
2023-04-01T13:21:09.805Z,86210.50
2023-04-01T13:24:07.683Z,86210.34
2023-04-01T13:27:13.441Z,86206.56
2023-04-01T13:30:00.706Z,86202.75
2023-04-01T13:32:56.336Z,86202.50
2023-04-01T13:36:05.773Z,86205.88
2023-04-01T13:39:10.856Z,86206.69
2023-04-01T13:42:07.199Z,86186.97
2023-04-01T13:44:49.145Z,86193.78
2023-04-01T13:47:36.749Z,86193.50
2023-04-01T13:50:30.190Z,86195.16
2023-04-01T13:53:35.845Z,86199.09
2023-04-01T13:56:25.243Z,86197.50
2023-04-01T13:59:09.697Z,86192.03
2023-04-01T14:02:27.835Z,86189.16
2023-04-01T14:05:43.803Z,86186.16
2023-04-01T14:09:01.243Z,86186.75
2023-04-01T14:11:37.013Z,86184.06
2023-04-01T14:14:30.912Z,86180.63
2023-04-01T14:17:40.852Z,86177.44
2023-04-01T14:20:07.971Z,86174.41
2023-04-01T14:23:13.912Z,86175.03
2023-04-01T14:26:07.632Z,86173.97
2023-04-01T14:29:37.737Z,86168.44
2023-04-01T14:32:38.250Z,86169.09
2023-04-01T14:35:38.873Z,86160.94
2023-04-01T14:38:29.840Z,86158.84
2023-04-01T14:41:13.580Z,86144.13
2023-04-01T14:44:00.905Z,86149.09
2023-04-01T14:46:51.745Z,86153.50
2023-04-01T14:49:44.212Z,86144.00
2023-04-01T14:52:36.651Z,86145.03
2023-04-01T14:55:34.445Z,86136.78
2023-04-01T14:58:16.832Z,86144.91
2023-04-01T15:01:07.124Z,86142.50
2023-04-01T15:03:51.551Z,86143.25
2023-04-01T15:06:52.696Z,86140.81
2023-04-01T15:09:55.131Z,86145.50
2023-04-01T15:12:53.644Z,86155.16
2023-04-01T15:15:48.347Z,86153.81
2023-04-01T15:18:32.873Z,86145.19
2023-04-01T15:21:17.924Z,86144.16
2023-04-01T15:23:59.814Z,86143.97
2023-04-01T15:26:45.730Z,86139.28
2023-04-01T15:29:29.627Z,86145.06
2023-04-01T15:32:27.933Z,86149.16
2023-04-01T15:35:13.593Z,86161.66
2023-04-01T15:37:55.813Z,86162.28
2023-04-01T15:40:38.166Z,86167.28
2023-04-01T15:43:47.151Z,86172.16
2023-04-01T15:46:50.191Z,86166.53
2023-04-01T15:49:43.391Z,86172.69
2023-04-01T15:52:46.371Z,86165.78
2023-04-01T15:55:48.107Z,86166.16
2023-04-01T15:58:49.036Z,86163.72
2023-04-01T16:01:44.220Z,86158.41
2023-04-01T16:04:47.624Z,86153.28
2023-04-01T16:07:43.052Z,86161.53
2023-04-01T16:10:35.347Z,86157.75
2023-04-01T16:13:37.489Z,86159.19
2023-04-01T16:16:29.448Z,86162.88
2023-04-01T16:19:14.864Z,86165.19
2023-04-01T16:21:54.874Z,86162.66
2023-04-01T16:24:54.826Z,86166.81
2023-04-01T16:27:37.899Z,86163.53
2023-04-01T16:30:35.484Z,86165.16
2023-04-01T16:33:53.167Z,86176.78
2023-04-01T16:36:36.972Z,86177.50
2023-04-01T16:39:34.750Z,86185.06
2023-04-01T16:42:08.005Z,86182.69
2023-04-01T16:45:00.459Z,86187.59
2023-04-01T16:48:19.656Z,86186.97
2023-04-01T16:51:01.565Z,86187.94
2023-04-01T16:53:44.266Z,86190.78
2023-04-01T16:56:43.292Z,86186.47
2023-04-01T16:59:35.950Z,86200.91
2023-04-01T17:02:08.046Z,86196.16
2023-04-01T17:05:09.013Z,86200.47
2023-04-01T17:08:31.123Z,86206.94
2023-04-01T17:11:15.852Z,86209.69
2023-04-01T17:14:15.303Z,86212.88
2023-04-01T17:16:51.572Z,86221.19
2023-04-01T17:19:43.631Z,86220.47
2023-04-01T17:22:48.283Z,86220.56
2023-04-01T17:26:01.366Z,86227.88
2023-04-01T17:28:47.091Z,86233.66
2023-04-01T17:31:53.746Z,86233.03
2023-04-01T17:35:13.354Z,86233.97
2023-04-01T17:38:23.589Z,86242.69
2023-04-01T17:41:49.498Z,86238.72
2023-04-01T17:44:30.112Z,86246.34
2023-04-01T17:47:17.128Z,86249.41
2023-04-01T17:50:22.490Z,86251.38
2023-04-01T17:53:28.803Z,86257.88
2023-04-01T17:56:21.227Z,86261.69
2023-04-01T17:59:03.309Z,86265.53
2023-04-01T18:02:17.498Z,86263.75
2023-04-01T18:05:24.059Z,86271.75
2023-04-01T18:08:18.624Z,86278.56
2023-04-01T18:10:52.403Z,86286.53
2023-04-01T18:13:59.042Z,86287.00
2023-04-01T18:16:35.560Z,86287.81
2023-04-01T18:19:43.003Z,86288.63
2023-04-01T18:22:46.310Z,86286.81
2023-04-01T18:25:38.041Z,86297.41
2023-04-01T18:28:32.377Z,86311.03
2023-04-01T18:31:16.436Z,86307.69
2023-04-01T18:34:21.121Z,86305.88
2023-04-01T18:36:56.942Z,86314.19
2023-04-01T18:40:20.227Z,86319.47
2023-04-01T18:42:57.557Z,86320.66
2023-04-01T18:45:33.202Z,86329.28
2023-04-01T18:48:23.256Z,86328.94
2023-04-01T18:51:35.603Z,86332.75
2023-04-01T18:54:27.735Z,86335.38
2023-04-01T18:57:13.749Z,86333.09
2023-04-01T18:59:45.328Z,86342.47
2023-04-01T19:02:46.145Z,86336.88
2023-04-01T19:05:35.062Z,86339.50
2023-04-01T19:08:29.684Z,86336.91
2023-04-01T19:11:17.503Z,86341.06
2023-04-01T19:14:28.112Z,86346.69
2023-04-01T19:17:25.872Z,86351.94
2023-04-01T19:20:26.074Z,86355.00
2023-04-01T19:23:17.427Z,86360.69
2023-04-01T19:25:56.360Z,86361.78
2023-04-01T19:28:48.259Z,86363.69
2023-04-01T19:31:18.293Z,86373.44
2023-04-01T19:34:03.789Z,86359.22
2023-04-01T19:36:53.306Z,86374.97
2023-04-01T19:39:55.717Z,86369.00
2023-04-01T19:43:06.397Z,86379.50
2023-04-01T19:45:50.594Z,86378.38
2023-04-01T19:49:02.428Z,86371.28
2023-04-01T19:51:58.648Z,86376.91
2023-04-01T19:55:14.455Z,86379.16
2023-04-01T19:58:06.548Z,86376.91
2023-04-01T20:00:53.754Z,86380.31
2023-04-01T20:03:45.548Z,86383.28
2023-04-01T20:06:36.209Z,86383.31
2023-04-01T20:10:08.955Z,86386.69
2023-04-01T20:12:54.659Z,86394.91
2023-04-01T20:15:34.541Z,86389.66
2023-04-01T20:18:14.881Z,86396.44
2023-04-01T20:20:55.057Z,86393.41
2023-04-01T20:24:02.930Z,86387.78
2023-04-01T20:26:42.663Z,86394.56
2023-04-01T20:29:37.655Z,86393.78
2023-04-01T20:32:04.930Z,86399.78
2023-04-01T20:35:03.091Z,86394.53
2023-04-01T20:37:42.966Z,86399.75
2023-04-01T20:40:33.269Z,86406.50
2023-04-01T20:43:49.349Z,86408.38
2023-04-01T20:46:38.560Z,86410.63
2023-04-01T20:49:34.747Z,86406.50
2023-04-01T20:52:14.512Z,86403.13
2023-04-01T20:55:22.634Z,86407.97
2023-04-01T20:58:14.973Z,86415.47
2023-04-01T21:01:01.263Z,86410.59
2023-04-01T21:04:11.586Z,86412.06
2023-04-01T21:07:33.933Z,86414.69
2023-04-01T21:10:46.275Z,86412.44
2023-04-01T21:13:34.535Z,86415.41
2023-04-01T21:16:35.534Z,86415.41
2023-04-01T21:19:21.165Z,86426.59
2023-04-01T21:22:19.699Z,86424.72
2023-04-01T21:25:02.028Z,86419.84
2023-04-01T21:27:42.522Z,86423.19
2023-04-01T21:31:20.623Z,86425.03
2023-04-01T21:34:11.987Z,86428.00
2023-04-01T21:37:03.141Z,86424.63
2023-04-01T21:40:31.653Z,86433.94
2023-04-01T21:43:36.318Z,86431.69
2023-04-01T21:46:40.921Z,86430.16
2023-04-01T21:50:09.209Z,86426.06
2023-04-01T21:53:17.259Z,86433.16
2023-04-01T21:56:25.150Z,86436.88
2023-04-01T21:59:17.123Z,86440.25
2023-04-01T22:02:17.837Z,86446.63
2023-04-01T22:05:00.321Z,86438.41
2023-04-01T22:07:54.472Z,86441.38
2023-04-01T22:10:33.500Z,86440.25
2023-04-01T22:13:27.735Z,86435.78
2023-04-01T22:16:52.014Z,86439.06
2023-04-01T22:19:39.067Z,86431.25
2023-04-01T22:22:54.051Z,86436.50
2023-04-01T22:26:06.375Z,86431.66
2023-04-01T22:29:06.451Z,86434.63
2023-04-01T22:31:49.953Z,86436.13
2023-04-01T22:34:50.574Z,86439.44
2023-04-01T22:37:51.311Z,86436.41
2023-04-01T22:40:31.922Z,86438.66
2023-04-01T22:43:52.313Z,86437.13
2023-04-01T22:46:54.634Z,86436.75
2023-04-01T22:49:39.930Z,86443.44
2023-04-01T22:52:42.100Z,86446.44
2023-04-01T22:55:16.580Z,86447.97
2023-04-01T22:58:29.625Z,86448.69
2023-04-01T23:01:06.348Z,86455.81
2023-04-01T23:03:39.897Z,86444.97
2023-04-01T23:06:13.554Z,86450.97
2023-04-01T23:09:13.945Z,86448.00
2023-04-01T23:12:01.376Z,86446.50
2023-04-01T23:15:01.588Z,86448.00
2023-04-01T23:18:05.116Z,86451.00
2023-04-01T23:21:00.039Z,86443.16
2023-04-01T23:24:13.870Z,86451.38
2023-04-01T23:26:53.706Z,86452.47
2023-04-01T23:29:23.601Z,86451.72
2023-04-01T23:32:01.674Z,86456.22
2023-04-01T23:34:39.451Z,86449.88
2023-04-01T23:37:12.376Z,86458.09
2023-04-01T23:39:54.147Z,86448.34
2023-04-01T23:42:40.312Z,86458.06
2023-04-01T23:45:18.931Z,86453.97
2023-04-01T23:47:49.267Z,86455.84
2023-04-01T23:50:25.342Z,86455.81
2023-04-01T23:53:04.061Z,86454.28
2023-04-01T23:55:34.729Z,86453.91
2023-04-01T23:58:17.296Z,86447.94
